หน้าหลัก
METAR-TAF:

METAR-TAF

ท่าอากาศยาน :

Aniak, อะแลสกา, สหรัฐอเมริกา

ละติจูด: 61-34-53N, ลองจิจูด: 159-32-34W, ความสูง: 27 ม.

การสังเกตสภาพอากาศปัจจุบัน

รายงานได้ทำขึ้นเมื่อ 1 ชั่วโมงและ 0 นาทีที่แล้ว ณ เวลา 01:56 UTC
ลม 6 นอตจากตะวันตก/ตะวันตกเฉียงเหนือ
อุณหภูมิ 13°C
ความชื้น 67%
ความกดอากาศ 1020 hPa
ทัศนวิสัย: 16.1 กม.
มีเมฆมาก มืดครึ้มที่ความสูง 2200 ฟุต

METAR: PANI 190156Z AUTO 30006KT 10SM OVC022 13/07 A3011 RMK AO2 SLP199 T01280072 $

เวลา: 18:56 (02:56 UTC)


TAF: หายไป

สังเกตการณ์สภาพอากาศและพยากรณ์อากาศของสนามบินมากกว่า 4000 แห่ง (รายงาน METAR และ TAF).

สถานีที่ดูได้จะแสดงไว้ด้วยจุดสีเหลืองและสีแดงบนแผนที่.

เลื่อนเมาส์ไปเหนือจุดเพื่อดูชื่อสถานี.

แล้วคลิกเพื่อดูสังเกตการณ์และการพยากรณ์สภาพอากาศ.

ในการเปลี่ยนแผนที่: คลิกที่ปุ่มสีเขียวที่มีกากบาทสีดำเพื่อซูมเข้า; ที่ปุ่มสีเขียวที่มีขีดเพื่อซูมออก; หรือที่ลูกศรสีเขียวเพื่อไปยังแผนที่ที่อยู่ติดกัน.


METAR-TAF: